createdAt,value
2019-06-26T00:05:26.157Z,99.90
2019-06-26T00:15:27.672Z,99.90
2019-06-26T00:25:29.125Z,99.90
2019-06-26T00:35:30.597Z,99.90
2019-06-26T00:45:32.025Z,99.90
2019-06-26T00:55:33.449Z,99.90
2019-06-26T01:05:34.887Z,99.90
2019-06-26T01:15:36.621Z,99.90
2019-06-26T01:25:38.006Z,99.90
2019-06-26T01:35:39.691Z,99.90
2019-06-26T01:45:41.182Z,99.90
2019-06-26T01:55:42.595Z,99.90
2019-06-26T02:05:44.056Z,99.90
2019-06-26T02:15:45.678Z,99.90
2019-06-26T02:25:47.201Z,99.90
2019-06-26T02:35:48.643Z,99.90
2019-06-26T02:45:50.059Z,99.90
2019-06-26T02:55:51.476Z,99.90
2019-06-26T03:05:52.918Z,99.90
2019-06-26T03:15:54.323Z,99.90
2019-06-26T03:25:55.839Z,99.90
2019-06-26T03:35:57.322Z,99.90
2019-06-26T03:45:58.761Z,99.90
2019-06-26T03:56:00.420Z,99.90
2019-06-26T04:06:01.846Z,99.90
2019-06-26T04:16:03.548Z,99.90
2019-06-26T04:26:05.077Z,99.90
2019-06-26T04:36:06.636Z,99.90
2019-06-26T04:46:08.320Z,99.90
2019-06-26T04:56:09.783Z,99.90
2019-06-26T05:06:11.361Z,99.90
2019-06-26T05:16:15.770Z,99.90
2019-06-26T05:26:16.376Z,99.20
2019-06-26T05:36:18.042Z,97.40
2019-06-26T05:46:30.692Z,90.40
2019-06-26T05:56:23.202Z,73.90
2019-06-26T06:06:40.327Z,66.20
2019-06-26T06:16:28.055Z,58.00
2019-06-26T06:26:29.475Z,53.10
2019-06-26T06:36:31.034Z,49.00
2019-06-26T06:46:32.442Z,41.60
2019-06-26T06:56:33.968Z,39.30
2019-06-26T07:06:35.420Z,33.90
2019-06-26T07:16:36.941Z,30.00
2019-06-26T07:26:38.464Z,28.50
2019-06-26T07:36:39.927Z,26.50
2019-06-26T07:46:41.366Z,23.20
2019-06-26T07:56:42.786Z,21.10
2019-06-26T08:06:44.226Z,20.30
2019-06-26T08:16:45.648Z,18.40
2019-06-26T08:26:47.072Z,16.50
2019-06-26T08:36:48.535Z,14.50
2019-06-26T08:46:49.952Z,13.20
2019-06-26T08:56:51.488Z,12.50
2019-06-26T09:06:53.081Z,11.40
2019-06-26T09:16:54.590Z,9.90
2019-06-26T09:26:56.790Z,9.80
2019-06-26T09:36:58.399Z,10.20
2019-06-26T09:46:59.887Z,9.70
2019-06-26T09:57:01.421Z,8.30
2019-06-26T10:07:03.049Z,5.30
2019-06-26T10:17:04.782Z,3.20
2019-06-26T10:27:06.411Z,3.10
2019-06-26T10:37:08.010Z,3.50
2019-06-26T10:47:09.434Z,4.10
2019-06-26T10:57:10.848Z,2.20
2019-06-26T11:07:12.521Z,1.50
2019-06-26T11:17:14.013Z,1.00
2019-06-26T11:27:15.419Z,1.00
2019-06-26T11:37:16.917Z,1.00
2019-06-26T11:47:18.326Z,1.80
2019-06-26T11:57:19.837Z,6.00
2019-06-26T12:07:21.285Z,8.70
2019-06-26T12:17:22.750Z,15.70
2019-06-26T12:27:24.210Z,18.40
2019-06-26T12:37:37.022Z,22.00
2019-06-26T12:47:29.226Z,27.30
2019-06-26T12:57:30.765Z,27.70
2019-06-26T13:07:33.354Z,29.20
2019-06-26T13:17:34.854Z,30.90
2019-06-26T13:27:36.371Z,32.50
2019-06-26T13:37:38.836Z,32.00
2019-06-26T13:47:40.283Z,35.60
2019-06-26T13:57:41.703Z,38.90
2019-06-26T14:07:43.131Z,32.80
2019-06-26T14:17:44.594Z,31.50
2019-06-26T14:27:46.046Z,32.00
2019-06-26T14:37:47.485Z,34.90
2019-06-26T14:47:48.931Z,32.20
2019-06-26T14:57:50.352Z,31.60
2019-06-26T15:07:51.989Z,32.20
2019-06-26T15:17:53.662Z,34.10
2019-06-26T15:27:55.202Z,32.10
2019-06-26T15:37:56.803Z,36.30
2019-06-26T15:47:58.335Z,34.90
2019-06-26T15:57:59.864Z,34.50
2019-06-26T16:08:01.319Z,33.10
2019-06-26T16:18:04.988Z,33.30
2019-06-26T16:28:06.664Z,33.80
2019-06-26T16:38:08.188Z,32.30
2019-06-26T16:48:09.844Z,31.70
2019-06-26T16:58:11.385Z,34.20
2019-06-26T17:08:12.955Z,34.70
2019-06-26T17:18:14.532Z,32.30
2019-06-26T17:28:16.682Z,32.80
2019-06-26T17:38:18.319Z,38.50
2019-06-26T17:48:19.887Z,43.70
2019-06-26T17:58:21.316Z,48.60
2019-06-26T18:08:22.868Z,50.50
2019-06-26T18:18:24.362Z,55.20
2019-06-26T18:28:25.937Z,60.10
2019-06-26T18:38:27.518Z,59.70
2019-06-26T18:48:29.096Z,57.80
2019-06-26T18:58:30.965Z,63.00
2019-06-26T19:08:39.051Z,63.70
2019-06-26T19:18:44.817Z,68.40
2019-06-26T19:28:49.440Z,69.60
2019-06-26T19:38:53.086Z,71.10
2019-06-26T19:49:01.741Z,74.70
2019-06-26T19:59:05.324Z,80.20
2019-06-26T20:09:10.720Z,80.10
2019-06-26T20:19:12.195Z,81.70
2019-06-26T20:29:13.794Z,80.50
2019-06-26T20:39:15.456Z,84.50
2019-06-26T20:49:16.930Z,85.90
2019-06-26T20:59:18.353Z,87.10
2019-06-26T21:09:19.826Z,91.60
2019-06-26T21:19:21.384Z,88.80
2019-06-26T21:29:22.928Z,90.30
2019-06-26T21:39:24.365Z,91.20
2019-06-26T21:49:25.930Z,91.90
2019-06-26T21:59:27.369Z,90.90
2019-06-26T22:09:47.612Z,90.90
2019-06-26T22:19:49.495Z,92.00
2019-06-26T22:29:50.917Z,92.60
2019-06-26T22:39:52.445Z,93.10
2019-06-26T22:49:54.011Z,94.00
2019-06-26T22:59:55.531Z,94.00
2019-06-26T23:09:56.928Z,94.90
2019-06-26T23:19:58.461Z,95.30
2019-06-26T23:29:59.994Z,95.50
2019-06-26T23:40:02.350Z,96.30
2019-06-26T23:50:04.337Z,96.30
